createdAt,value
2022-10-23T00:01:51.018Z,12.36
2022-10-23T00:04:21.602Z,12.41
2022-10-23T00:06:51.435Z,12.33
2022-10-23T00:09:24.637Z,12.30
2022-10-23T00:11:56.909Z,12.25
2022-10-23T00:14:29.138Z,12.22
2022-10-23T00:16:59.563Z,12.19
2022-10-23T00:19:27.660Z,12.17
2022-10-23T00:21:55.637Z,12.16
2022-10-23T00:24:23.724Z,12.17
2022-10-23T00:26:51.862Z,12.18
2022-10-23T00:29:19.786Z,12.18
2022-10-23T00:31:49.791Z,12.21
2022-10-23T00:34:17.837Z,12.17
2022-10-23T00:36:48.463Z,12.16
2022-10-23T00:39:16.154Z,12.17
2022-10-23T00:41:44.123Z,12.14
2022-10-23T00:44:50.485Z,12.12
2022-10-23T00:47:20.079Z,12.11
2022-10-23T00:49:48.089Z,12.15
2022-10-23T00:52:17.125Z,12.20
2022-10-23T00:54:45.658Z,12.27
2022-10-23T00:57:16.091Z,12.35
2022-10-23T00:59:44.268Z,12.40
2022-10-23T01:02:14.285Z,12.47
2022-10-23T01:04:53.516Z,12.53
2022-10-23T01:07:30.144Z,12.58
2022-10-23T01:10:05.953Z,12.62
2022-10-23T01:12:39.710Z,12.68
2022-10-23T01:15:18.455Z,12.72
2022-10-23T01:17:54.874Z,12.75
2022-10-23T01:20:39.965Z,12.78
2022-10-23T01:23:37.893Z,12.82
2022-10-23T01:26:36.592Z,12.77
2022-10-23T01:29:11.725Z,12.77
2022-10-23T01:31:46.216Z,12.77
2022-10-23T01:34:17.387Z,12.77
2022-10-23T01:36:51.540Z,12.81
2022-10-23T01:39:23.894Z,12.83
2022-10-23T01:42:00.959Z,12.81
2022-10-23T01:44:35.650Z,12.82
2022-10-23T01:47:07.823Z,12.84
2022-10-23T01:49:40.157Z,12.86
2022-10-23T01:52:19.641Z,12.83
2022-10-23T01:54:50.926Z,12.81
2022-10-23T02:00:18.922Z,12.80
2022-10-23T02:02:50.004Z,12.77
2022-10-23T02:05:23.002Z,12.71
2022-10-23T02:07:51.610Z,12.70
2022-10-23T02:10:20.661Z,12.66
2022-10-23T02:12:56.852Z,12.64
2022-10-23T02:15:38.158Z,12.56
2022-10-23T02:18:14.517Z,12.57
2022-10-23T02:20:55.520Z,12.52
2022-10-23T02:23:34.916Z,12.43
2022-10-23T02:26:12.651Z,12.38
2022-10-23T02:28:48.142Z,12.33
2022-10-23T02:31:21.313Z,12.27
2022-10-23T02:33:49.842Z,12.22
2022-10-23T02:36:22.692Z,12.15
2022-10-23T02:38:53.133Z,12.09
2022-10-23T02:41:37.332Z,12.03
2022-10-23T02:44:19.886Z,12.01
2022-10-23T02:46:54.591Z,11.93
2022-10-23T02:49:37.217Z,11.83
2022-10-23T02:52:28.914Z,11.77
2022-10-23T02:55:58.082Z,11.72
2022-10-23T02:58:41.864Z,11.60
2022-10-23T03:01:27.276Z,11.53
2022-10-23T03:04:13.131Z,11.48
2022-10-23T03:06:41.690Z,11.43
2022-10-23T03:09:30.743Z,11.37
2022-10-23T03:12:01.105Z,11.33
2022-10-23T03:14:29.488Z,11.28
2022-10-23T03:17:02.563Z,11.22
2022-10-23T03:19:34.330Z,11.21
2022-10-23T03:22:04.942Z,11.12
2022-10-23T03:24:32.799Z,11.11
2022-10-23T03:27:00.590Z,11.06
2022-10-23T03:29:28.523Z,11.01
2022-10-23T03:31:59.801Z,10.95
2022-10-23T03:34:28.027Z,10.98
2022-10-23T03:36:57.304Z,10.92
2022-10-23T03:39:25.409Z,10.91
2022-10-23T03:42:00.740Z,10.91
2022-10-23T03:44:35.675Z,10.82
2022-10-23T03:47:04.538Z,10.73
2022-10-23T03:49:33.870Z,10.68
2022-10-23T03:52:03.150Z,10.57
2022-10-23T03:54:31.743Z,10.55
2022-10-23T03:57:01.716Z,10.48
2022-10-23T03:59:32.406Z,10.44
2022-10-23T04:02:04.893Z,10.37
2022-10-23T04:11:24.269Z,10.12
2022-10-23T04:14:04.103Z,10.06
2022-10-23T04:16:35.262Z,10.10
2022-10-23T04:19:06.534Z,10.03
2022-10-23T04:21:40.869Z,10.09
2022-10-23T04:24:18.293Z,10.09
2022-10-23T04:27:00.730Z,9.98
2022-10-23T04:29:32.090Z,9.85
2022-10-23T04:32:01.025Z,9.80
2022-10-23T04:34:30.536Z,9.69
2022-10-23T04:36:59.016Z,9.63
2022-10-23T04:39:30.698Z,9.68
2022-10-23T04:42:12.274Z,9.75
2022-10-23T04:44:42.295Z,9.71
2022-10-23T04:47:11.036Z,9.68
2022-10-23T04:49:43.723Z,9.64
2022-10-23T04:52:17.809Z,9.54
2022-10-23T04:54:52.671Z,9.45
2022-10-23T04:57:24.052Z,9.43
2022-10-23T04:59:54.600Z,9.41
2022-10-23T05:02:23.601Z,9.41
2022-10-23T05:04:51.736Z,9.44
2022-10-23T05:07:19.633Z,9.43
2022-10-23T05:09:50.770Z,9.40
2022-10-23T05:12:18.842Z,9.34
2022-10-23T05:14:50.999Z,9.32
2022-10-23T05:17:21.334Z,9.25
2022-10-23T05:19:54.212Z,9.23
2022-10-23T05:22:29.105Z,9.21
2022-10-23T05:24:59.582Z,9.18
2022-10-23T05:27:27.583Z,9.15
2022-10-23T05:30:02.601Z,8.98
2022-10-23T05:32:33.657Z,8.94
2022-10-23T05:35:06.312Z,8.87
2022-10-23T05:37:38.360Z,8.78
2022-10-23T05:40:09.049Z,8.77
2022-10-23T05:42:39.499Z,8.76
2022-10-23T05:45:12.638Z,8.78
2022-10-23T05:47:40.372Z,8.81
2022-10-23T05:50:09.572Z,8.87
2022-10-23T05:52:37.675Z,8.92
2022-10-23T05:55:06.047Z,8.86
2022-10-23T05:57:34.676Z,8.89
2022-10-23T06:00:02.468Z,8.94
2022-10-23T06:02:32.014Z,8.93
2022-10-23T06:04:59.956Z,8.92
2022-10-23T06:07:31.196Z,8.91
2022-10-23T06:10:01.330Z,8.93
2022-10-23T06:12:31.117Z,9.01
2022-10-23T06:14:59.119Z,9.06
2022-10-23T06:17:27.113Z,9.24
2022-10-23T06:20:02.428Z,9.33
2022-10-23T06:22:36.643Z,9.33
2022-10-23T06:25:04.799Z,9.51
2022-10-23T06:27:32.655Z,9.79
2022-10-23T06:30:00.471Z,9.88
2022-10-23T06:32:28.266Z,10.19
2022-10-23T06:34:57.281Z,10.12
2022-10-23T06:37:25.294Z,10.20
2022-10-23T06:39:53.111Z,10.37
2022-10-23T06:42:20.873Z,10.62
2022-10-23T06:44:48.934Z,11.03
2022-10-23T06:49:45.383Z,11.65
2022-10-23T06:52:41.802Z,12.00
2022-10-23T06:55:02.912Z,11.92
2022-10-23T06:57:30.755Z,11.82
2022-10-23T06:59:58.602Z,11.71
2022-10-23T07:02:26.981Z,11.59
2022-10-23T07:04:55.432Z,11.53
2022-10-23T07:07:24.862Z,11.44
2022-10-23T07:09:52.755Z,11.51
2022-10-23T07:12:20.350Z,11.51
2022-10-23T07:14:48.153Z,11.65
2022-10-23T07:17:16.335Z,11.64
2022-10-23T07:19:44.346Z,11.73
2022-10-23T07:22:16.051Z,11.71
2022-10-23T07:24:48.554Z,11.82
2022-10-23T07:27:16.471Z,11.92
2022-10-23T07:29:44.135Z,11.93
2022-10-23T07:32:13.343Z,11.98
2022-10-23T07:34:41.217Z,12.09
2022-10-23T07:37:09.100Z,12.07
2022-10-23T07:39:37.245Z,12.07
2022-10-23T07:42:06.813Z,12.07
2022-10-23T07:44:34.713Z,12.13
2022-10-23T07:47:02.512Z,12.14
2022-10-23T07:49:34.209Z,12.18
2022-10-23T07:52:06.957Z,12.26
2022-10-23T07:54:35.399Z,12.27
2022-10-23T07:57:03.510Z,12.26
2022-10-23T07:59:37.191Z,12.35
2022-10-23T08:02:06.710Z,12.41
2022-10-23T08:04:34.601Z,12.32
2022-10-23T08:07:02.242Z,12.41
2022-10-23T08:09:30.636Z,12.44
2022-10-23T08:11:59.089Z,12.60
2022-10-23T08:14:38.516Z,12.76
2022-10-23T08:17:10.128Z,12.92
2022-10-23T08:19:46.479Z,13.19
2022-10-23T08:22:16.931Z,13.26
2022-10-23T08:24:46.317Z,13.37
2022-10-23T08:27:16.451Z,13.54
2022-10-23T08:29:49.270Z,13.62
2022-10-23T08:32:24.230Z,13.61
2022-10-23T08:34:52.308Z,13.71
2022-10-23T08:37:22.800Z,13.68
2022-10-23T08:39:52.667Z,13.86
2022-10-23T08:42:29.709Z,13.89
2022-10-23T08:45:15.427Z,13.91
2022-10-23T08:47:50.876Z,13.96
2022-10-23T08:53:03.562Z,14.15
2022-10-23T08:55:35.043Z,14.13
2022-10-23T08:58:10.450Z,14.21
2022-10-23T09:00:38.365Z,14.31
2022-10-23T09:03:08.051Z,14.45
2022-10-23T09:05:54.269Z,14.46
2022-10-23T09:08:34.261Z,14.56
2022-10-23T09:11:06.324Z,14.59
2022-10-23T09:13:55.588Z,14.68
2022-10-23T09:16:38.357Z,14.71
2022-10-23T09:19:16.324Z,14.81
2022-10-23T09:21:47.882Z,14.94
2022-10-23T09:24:17.997Z,15.03
2022-10-23T09:26:48.431Z,15.13
2022-10-23T09:29:27.296Z,15.21
2022-10-23T09:31:57.652Z,15.23
2022-10-23T09:34:42.901Z,15.28
2022-10-23T09:37:23.950Z,15.34
2022-10-23T09:40:04.858Z,15.42
2022-10-23T09:42:37.539Z,15.47
2022-10-23T09:45:30.310Z,15.53
2022-10-23T09:48:19.323Z,15.58
2022-10-23T09:50:56.742Z,15.73
2022-10-23T09:53:37.222Z,15.80
2022-10-23T09:56:12.054Z,15.89
2022-10-23T09:58:46.128Z,15.96
2022-10-23T10:01:28.272Z,16.04
2022-10-23T10:03:57.026Z,15.99
2022-10-23T10:06:28.569Z,16.11
2022-10-23T10:09:04.293Z,16.15
2022-10-23T10:11:39.518Z,16.21
2022-10-23T10:14:43.650Z,16.25
2022-10-23T10:17:20.109Z,16.29
2022-10-23T10:20:19.957Z,16.34
2022-10-23T10:22:59.445Z,16.44
2022-10-23T10:25:37.456Z,16.49
2022-10-23T10:28:23.918Z,16.63
2022-10-23T10:31:13.067Z,16.62
2022-10-23T10:33:50.247Z,16.61
2022-10-23T10:36:38.356Z,16.77
2022-10-23T10:39:17.540Z,16.90
2022-10-23T10:41:54.379Z,16.89
2022-10-23T10:44:40.369Z,16.93
2022-10-23T10:47:20.048Z,16.96
2022-10-23T10:50:03.494Z,16.97
2022-10-23T10:52:38.284Z,17.00
2022-10-23T10:55:19.951Z,17.02
2022-10-23T10:57:59.249Z,17.03
2022-10-23T11:00:31.252Z,16.95
2022-10-23T11:03:13.481Z,16.98
2022-10-23T11:05:45.566Z,17.00
2022-10-23T11:08:18.115Z,17.12
2022-10-23T11:10:51.414Z,17.21
2022-10-23T11:13:28.822Z,17.34
2022-10-23T11:16:00.615Z,17.49
2022-10-23T11:18:32.294Z,17.62
2022-10-23T11:21:10.354Z,17.74
2022-10-23T11:24:11.491Z,17.77
2022-10-23T11:26:53.341Z,17.84
2022-10-23T11:30:06.933Z,17.86
2022-10-23T11:32:58.696Z,17.97
2022-10-23T11:35:51.059Z,18.13
2022-10-23T11:38:24.926Z,18.17
2022-10-23T11:40:57.751Z,18.03
2022-10-23T11:43:34.374Z,18.10
2022-10-23T11:46:13.565Z,18.06
2022-10-23T11:48:44.217Z,17.97
2022-10-23T11:51:29.537Z,17.95
2022-10-23T11:54:24.738Z,17.96
2022-10-23T11:56:57.103Z,17.91
2022-10-23T11:59:31.916Z,17.89
2022-10-23T12:02:02.622Z,17.88
2022-10-23T12:04:41.891Z,17.81
2022-10-23T12:07:34.264Z,17.71
2022-10-23T12:10:04.484Z,17.74
2022-10-23T12:12:36.165Z,17.76
2022-10-23T12:15:24.007Z,17.79
2022-10-23T12:17:56.593Z,17.89
2022-10-23T12:20:33.167Z,17.92
2022-10-23T12:23:33.827Z,17.96
2022-10-23T12:26:19.191Z,17.89
2022-10-23T12:28:56.131Z,17.98
2022-10-23T12:31:35.709Z,17.91
2022-10-23T12:34:19.252Z,17.82
2022-10-23T12:37:08.744Z,17.84
2022-10-23T12:39:40.273Z,17.92
2022-10-23T12:42:19.372Z,17.96
2022-10-23T12:44:47.380Z,17.93
2022-10-23T12:47:30.666Z,17.95
2022-10-23T12:49:58.770Z,17.99
2022-10-23T12:52:39.691Z,18.04
2022-10-23T12:55:14.816Z,18.04
2022-10-23T12:57:44.643Z,18.12
2022-10-23T13:00:20.788Z,18.16
2022-10-23T13:03:00.119Z,18.22
2022-10-23T13:05:29.137Z,18.24
2022-10-23T13:08:15.035Z,18.22
2022-10-23T13:10:43.486Z,18.23
2022-10-23T13:13:24.146Z,18.25
2022-10-23T13:15:54.208Z,18.20
2022-10-23T13:18:51.212Z,18.22
2022-10-23T13:21:28.825Z,18.21
2022-10-23T13:24:01.735Z,18.26
2022-10-23T13:26:35.198Z,18.27
2022-10-23T13:29:07.326Z,18.28
2022-10-23T13:31:42.259Z,18.26
2022-10-23T13:34:28.734Z,18.25
2022-10-23T13:37:05.450Z,18.33
2022-10-23T13:39:37.308Z,18.40
2022-10-23T13:42:14.704Z,18.43
2022-10-23T13:44:51.631Z,18.55
2022-10-23T13:47:24.756Z,18.53
2022-10-23T13:49:56.543Z,18.56
2022-10-23T13:52:40.210Z,18.46
2022-10-23T13:55:22.081Z,18.47
2022-10-23T13:57:50.489Z,18.41
2022-10-23T14:00:19.751Z,18.45
2022-10-23T14:05:24.217Z,18.27
2022-10-23T14:07:51.914Z,18.23
2022-10-23T14:10:25.640Z,18.12
2022-10-23T14:12:55.389Z,18.07
2022-10-23T14:15:23.315Z,18.05
2022-10-23T14:17:59.034Z,17.99
2022-10-23T14:20:30.251Z,17.92
2022-10-23T14:22:58.206Z,17.84
2022-10-23T14:25:26.315Z,17.72
2022-10-23T14:30:25.824Z,17.57
2022-10-23T14:32:56.469Z,17.55
2022-10-23T14:35:25.731Z,17.51
2022-10-23T14:37:54.795Z,17.51
2022-10-23T14:40:22.769Z,17.47
2022-10-23T14:42:50.574Z,17.40
2022-10-23T14:45:18.506Z,17.39
2022-10-23T14:47:46.521Z,17.33
2022-10-23T14:50:15.443Z,17.32
2022-10-23T14:52:51.964Z,17.28
2022-10-23T14:55:21.544Z,17.29
2022-10-23T14:57:52.209Z,17.27
2022-10-23T15:00:25.235Z,17.20
2022-10-23T15:02:53.386Z,17.20
2022-10-23T15:05:21.373Z,17.15
2022-10-23T15:07:52.808Z,17.12
2022-10-23T15:10:22.249Z,17.07
2022-10-23T15:12:50.173Z,17.03
2022-10-23T15:15:18.767Z,16.99
2022-10-23T15:17:46.748Z,16.96
2022-10-23T15:20:14.468Z,16.89
2022-10-23T15:22:46.564Z,16.82
2022-10-23T15:25:17.913Z,16.75
2022-10-23T15:27:51.409Z,16.67
2022-10-23T15:30:19.379Z,16.58
2022-10-23T15:32:50.754Z,16.51
2022-10-23T15:35:18.398Z,16.44
2022-10-23T15:37:47.027Z,16.34
2022-10-23T15:40:15.573Z,16.30
2022-10-23T15:42:43.763Z,16.24
2022-10-23T15:45:16.376Z,16.15
2022-10-23T15:47:44.649Z,16.07
2022-10-23T15:50:12.640Z,16.01
2022-10-23T15:52:40.578Z,15.95
2022-10-23T15:55:11.593Z,15.92
2022-10-23T15:57:42.626Z,15.88
2022-10-23T16:00:18.151Z,15.88
2022-10-23T16:02:47.822Z,15.86
2022-10-23T16:05:17.405Z,15.84
2022-10-23T16:07:45.262Z,15.83
2022-10-23T16:10:13.739Z,15.82
2022-10-23T16:12:41.755Z,15.82
2022-10-23T16:15:13.407Z,15.78
2022-10-23T16:17:43.414Z,15.80
2022-10-23T16:20:12.174Z,15.74
2022-10-23T16:22:42.706Z,15.75
2022-10-23T16:25:13.127Z,15.75
2022-10-23T16:27:43.678Z,15.73
2022-10-23T16:30:14.385Z,15.75
2022-10-23T16:32:43.816Z,15.72
2022-10-23T16:35:13.096Z,15.70
2022-10-23T16:37:45.198Z,15.71
2022-10-23T16:40:13.206Z,15.71
2022-10-23T16:42:41.720Z,15.70
2022-10-23T16:45:10.563Z,15.70
2022-10-23T16:47:38.400Z,15.63
2022-10-23T16:50:08.477Z,15.62
2022-10-23T16:52:36.653Z,15.59
2022-10-23T16:55:05.035Z,15.63
2022-10-23T16:57:33.234Z,15.60
2022-10-23T17:00:00.934Z,15.63
2022-10-23T17:02:28.749Z,15.62
2022-10-23T17:05:02.247Z,15.61
2022-10-23T17:07:33.224Z,15.59
2022-10-23T17:10:01.165Z,15.57
2022-10-23T17:12:28.960Z,15.54
2022-10-23T17:14:56.967Z,15.55
2022-10-23T17:17:24.749Z,15.53
2022-10-23T17:19:52.513Z,15.52
2022-10-23T17:22:20.385Z,15.57
2022-10-23T17:24:51.628Z,15.56
2022-10-23T17:27:21.996Z,15.56
2022-10-23T17:29:49.668Z,15.58
2022-10-23T17:32:17.471Z,15.57
2022-10-23T17:34:47.402Z,15.57
2022-10-23T17:37:15.296Z,15.59
2022-10-23T17:39:43.431Z,15.61
2022-10-23T17:42:18.000Z,15.64
2022-10-23T17:44:45.824Z,15.64
2022-10-23T17:47:13.539Z,15.60
2022-10-23T17:49:42.903Z,15.59
2022-10-23T17:52:14.971Z,15.51
2022-10-23T17:54:46.683Z,15.49
2022-10-23T17:57:17.470Z,15.49
2022-10-23T17:59:47.774Z,15.46
2022-10-23T18:02:16.066Z,15.43
2022-10-23T18:04:43.842Z,15.42
2022-10-23T18:07:14.680Z,15.39
2022-10-23T18:09:42.589Z,15.39
2022-10-23T18:12:13.464Z,15.38
2022-10-23T18:14:48.694Z,15.33
2022-10-23T18:17:18.176Z,15.32
2022-10-23T18:19:46.138Z,15.32
2022-10-23T18:22:14.689Z,15.26
2022-10-23T18:24:47.392Z,15.26
2022-10-23T18:27:15.348Z,15.23
2022-10-23T18:29:44.946Z,15.19
2022-10-23T18:32:12.858Z,15.13
2022-10-23T18:34:41.956Z,15.08
2022-10-23T18:37:10.829Z,15.05
2022-10-23T18:39:43.694Z,15.04
2022-10-23T18:42:11.837Z,15.02
2022-10-23T18:44:39.950Z,15.03
2022-10-23T18:47:09.446Z,15.01
2022-10-23T18:49:37.328Z,15.02
2022-10-23T18:52:07.565Z,15.02
2022-10-23T18:54:35.754Z,15.00
2022-10-23T18:57:03.691Z,14.99
2022-10-23T18:59:31.665Z,14.97
2022-10-23T19:01:59.768Z,14.94
2022-10-23T19:04:32.779Z,14.96
2022-10-23T19:07:03.458Z,15.01
2022-10-23T19:09:31.182Z,14.99
2022-10-23T19:12:02.594Z,14.98
2022-10-23T19:14:33.614Z,14.95
2022-10-23T19:17:05.427Z,14.94
2022-10-23T19:19:37.397Z,14.93
2022-10-23T19:22:06.429Z,14.91
2022-10-23T19:24:41.064Z,14.87
2022-10-23T19:27:11.852Z,14.88
2022-10-23T19:29:44.472Z,14.86
2022-10-23T19:32:12.776Z,14.89
2022-10-23T19:34:42.410Z,14.87
2022-10-23T19:37:10.540Z,14.85
2022-10-23T19:39:38.519Z,14.84
2022-10-23T19:42:08.657Z,14.84
2022-10-23T19:44:36.828Z,14.84
2022-10-23T19:47:04.678Z,14.87
2022-10-23T19:49:32.754Z,14.87
2022-10-23T19:52:04.670Z,14.87
2022-10-23T19:54:33.738Z,14.86
2022-10-23T19:57:02.598Z,14.85
2022-10-23T19:59:30.478Z,14.84
2022-10-23T20:02:05.268Z,14.82
2022-10-23T20:04:37.230Z,14.80
2022-10-23T20:07:10.334Z,14.76
2022-10-23T20:09:39.562Z,14.74
2022-10-23T20:12:09.130Z,14.72
2022-10-23T20:14:37.042Z,14.73
2022-10-23T20:17:08.846Z,14.64
2022-10-23T20:19:36.561Z,14.62
2022-10-23T20:22:05.569Z,14.62
2022-10-23T20:24:38.071Z,14.63
2022-10-23T20:27:06.125Z,14.61
2022-10-23T20:29:33.939Z,14.62
2022-10-23T20:32:01.760Z,14.62
2022-10-23T20:34:30.021Z,14.59
2022-10-23T20:36:57.944Z,14.54
2022-10-23T20:39:27.155Z,14.54
2022-10-23T20:42:00.407Z,14.52
2022-10-23T20:44:31.000Z,14.45
2022-10-23T20:47:01.574Z,14.41
2022-10-23T20:49:33.600Z,14.38
2022-10-23T20:52:03.184Z,14.34
2022-10-23T20:54:31.871Z,14.32
2022-10-23T20:57:01.657Z,14.31
2022-10-23T20:59:29.666Z,14.28
2022-10-23T21:01:58.233Z,14.26
2022-10-23T21:04:27.688Z,14.19
2022-10-23T21:07:15.087Z,14.16
2022-10-23T21:09:43.288Z,14.09
2022-10-23T21:12:12.659Z,14.10
2022-10-23T21:14:40.595Z,14.02
2022-10-23T21:17:10.913Z,13.96
2022-10-23T21:19:40.142Z,13.98
2022-10-23T21:22:07.765Z,14.04
2022-10-23T21:24:35.652Z,14.11
2022-10-23T21:27:03.461Z,14.09
2022-10-23T21:29:32.725Z,14.14
2022-10-23T21:32:02.319Z,14.20
2022-10-23T21:34:30.370Z,14.12
2022-10-23T21:37:14.833Z,14.08
2022-10-23T21:39:43.225Z,14.02
2022-10-23T21:42:11.554Z,13.97
2022-10-23T21:44:43.559Z,13.93
2022-10-23T21:47:12.082Z,13.90
2022-10-23T21:49:39.696Z,13.88
2022-10-23T21:52:09.156Z,13.85
2022-10-23T21:54:36.856Z,13.88
2022-10-23T21:57:04.805Z,13.91
2022-10-23T21:59:36.041Z,13.93
2022-10-23T22:02:08.454Z,13.98
2022-10-23T22:04:36.828Z,14.00
2022-10-23T22:07:05.897Z,14.05
2022-10-23T22:09:34.535Z,14.07
2022-10-23T22:12:02.723Z,14.06
2022-10-23T22:14:30.481Z,14.11
2022-10-23T22:16:58.036Z,14.12
2022-10-23T22:19:27.169Z,14.18
2022-10-23T22:21:55.274Z,14.19
2022-10-23T22:24:25.851Z,14.23
2022-10-23T22:26:56.245Z,14.25
2022-10-23T22:29:26.746Z,14.30
2022-10-23T22:31:56.090Z,14.35
2022-10-23T22:34:51.384Z,14.34
2022-10-23T22:37:16.824Z,14.34
2022-10-23T22:39:44.509Z,14.33
2022-10-23T22:42:12.277Z,14.31
2022-10-23T22:44:40.683Z,14.39
2022-10-23T22:47:09.004Z,14.43
2022-10-23T22:49:37.082Z,14.40
2022-10-23T22:52:05.098Z,14.39
2022-10-23T22:54:34.797Z,14.38
2022-10-23T22:57:03.567Z,14.35
2022-10-23T22:59:31.412Z,14.31
2022-10-23T23:01:59.276Z,14.27
2022-10-23T23:04:43.100Z,14.21
2022-10-23T23:07:13.596Z,14.16
2022-10-23T23:09:44.513Z,14.12
2022-10-23T23:12:15.062Z,14.04
2022-10-23T23:14:43.962Z,13.96
2022-10-23T23:17:12.023Z,13.91
2022-10-23T23:19:40.036Z,13.85
2022-10-23T23:22:07.812Z,13.83
2022-10-23T23:24:35.590Z,13.82
2022-10-23T23:27:04.886Z,13.76
2022-10-23T23:29:32.556Z,13.72
2022-10-23T23:32:00.189Z,13.62
2022-10-23T23:34:27.915Z,13.61
2022-10-23T23:36:56.161Z,13.59
2022-10-23T23:39:23.780Z,13.56
2022-10-23T23:41:51.402Z,13.55
2022-10-23T23:44:20.416Z,13.54
2022-10-23T23:46:47.956Z,13.54
2022-10-23T23:49:15.730Z,13.55
2022-10-23T23:51:43.344Z,13.52
2022-10-23T23:54:11.107Z,13.50
2022-10-23T23:56:39.078Z,13.47
2022-10-23T23:59:06.835Z,13.45
